sensor_id;sensor_type;location;lat;lon;timestamp;temperature;humidity
77056;SHT30;67471;44.918;8.614;2023-10-13T00:00:14;19.79;73.83
77056;SHT30;67471;44.918;8.614;2023-10-13T00:03:29;19.84;73.51
77056;SHT30;67471;44.918;8.614;2023-10-13T00:06:34;19.93;72.99
77056;SHT30;67471;44.918;8.614;2023-10-13T00:09:39;19.80;73.25
77056;SHT30;67471;44.918;8.614;2023-10-13T00:12:43;19.77;73.43
77056;SHT30;67471;44.918;8.614;2023-10-13T00:15:53;19.65;73.64
77056;SHT30;67471;44.918;8.614;2023-10-13T00:19:03;19.65;73.87
77056;SHT30;67471;44.918;8.614;2023-10-13T00:22:09;19.60;74.03
77056;SHT30;67471;44.918;8.614;2023-10-13T00:25:13;19.52;74.54
77056;SHT30;67471;44.918;8.614;2023-10-13T00:28:29;19.40;74.77
77056;SHT30;67471;44.918;8.614;2023-10-13T00:31:40;19.48;74.22
77056;SHT30;67471;44.918;8.614;2023-10-13T00:34:46;19.33;74.59
77056;SHT30;67471;44.918;8.614;2023-10-13T00:37:53;19.35;74.39
77056;SHT30;67471;44.918;8.614;2023-10-13T00:40:57;19.23;74.66
77056;SHT30;67471;44.918;8.614;2023-10-13T00:44:09;19.30;74.59
77056;SHT30;67471;44.918;8.614;2023-10-13T00:47:13;19.33;74.39
77056;SHT30;67471;44.918;8.614;2023-10-13T00:50:21;19.23;74.73
77056;SHT30;67471;44.918;8.614;2023-10-13T00:53:27;19.25;74.78
77056;SHT30;67471;44.918;8.614;2023-10-13T00:56:32;19.22;74.85
77056;SHT30;67471;44.918;8.614;2023-10-13T00:59:36;19.20;74.84
77056;SHT30;67471;44.918;8.614;2023-10-13T01:02:39;19.14;75.21
77056;SHT30;67471;44.918;8.614;2023-10-13T01:05:43;19.12;75.30
77056;SHT30;67471;44.918;8.614;2023-10-13T01:08:48;19.02;75.81
77056;SHT30;67471;44.918;8.614;2023-10-13T01:11:54;19.09;75.49
77056;SHT30;67471;44.918;8.614;2023-10-13T01:14:58;19.05;75.50
77056;SHT30;67471;44.918;8.614;2023-10-13T01:18:07;19.15;75.25
77056;SHT30;67471;44.918;8.614;2023-10-13T01:21:16;19.18;75.21
77056;SHT30;67471;44.918;8.614;2023-10-13T01:24:23;19.12;75.16
77056;SHT30;67471;44.918;8.614;2023-10-13T01:27:28;19.16;75.41
77056;SHT30;67471;44.918;8.614;2023-10-13T01:30:32;19.28;74.95
77056;SHT30;67471;44.918;8.614;2023-10-13T01:33:36;19.19;75.30
77056;SHT30;67471;44.918;8.614;2023-10-13T01:36:41;19.26;75.13
77056;SHT30;67471;44.918;8.614;2023-10-13T01:39:45;19.28;75.17
77056;SHT30;67471;44.918;8.614;2023-10-13T01:42:51;19.18;75.15
77056;SHT30;67471;44.918;8.614;2023-10-13T01:45:59;19.16;75.42
77056;SHT30;67471;44.918;8.614;2023-10-13T01:49:02;19.19;75.43
77056;SHT30;67471;44.918;8.614;2023-10-13T01:52:10;19.08;75.86
77056;SHT30;67471;44.918;8.614;2023-10-13T01:55:19;19.07;76.12
77056;SHT30;67471;44.918;8.614;2023-10-13T01:58:23;19.02;77.10
77056;SHT30;67471;44.918;8.614;2023-10-13T02:01:35;19.07;77.06
77056;SHT30;67471;44.918;8.614;2023-10-13T02:04:40;19.11;76.80
77056;SHT30;67471;44.918;8.614;2023-10-13T02:07:53;19.12;75.91
77056;SHT30;67471;44.918;8.614;2023-10-13T02:10:57;19.16;75.39
77056;SHT30;67471;44.918;8.614;2023-10-13T02:14:02;19.01;75.53
77056;SHT30;67471;44.918;8.614;2023-10-13T02:17:06;18.95;75.12
77056;SHT30;67471;44.918;8.614;2023-10-13T02:20:16;18.88;75.32
77056;SHT30;67471;44.918;8.614;2023-10-13T02:23:24;18.85;75.36
77056;SHT30;67471;44.918;8.614;2023-10-13T02:26:31;18.68;75.69
77056;SHT30;67471;44.918;8.614;2023-10-13T02:29:35;18.54;76.25
77056;SHT30;67471;44.918;8.614;2023-10-13T02:32:43;18.58;75.96
77056;SHT30;67471;44.918;8.614;2023-10-13T02:35:48;18.54;76.20
77056;SHT30;67471;44.918;8.614;2023-10-13T02:38:56;18.34;77.21
77056;SHT30;67471;44.918;8.614;2023-10-13T02:42:01;18.41;76.97
77056;SHT30;67471;44.918;8.614;2023-10-13T02:45:10;18.30;76.90
77056;SHT30;67471;44.918;8.614;2023-10-13T02:48:15;18.43;76.61
77056;SHT30;67471;44.918;8.614;2023-10-13T02:51:25;18.37;77.04
77056;SHT30;67471;44.918;8.614;2023-10-13T02:54:39;18.33;77.56
77056;SHT30;67471;44.918;8.614;2023-10-13T02:57:46;18.37;77.53
77056;SHT30;67471;44.918;8.614;2023-10-13T03:00:50;18.43;77.67
77056;SHT30;67471;44.918;8.614;2023-10-13T03:03:54;18.46;77.63
77056;SHT30;67471;44.918;8.614;2023-10-13T03:06:58;18.47;77.73
77056;SHT30;67471;44.918;8.614;2023-10-13T03:10:04;18.57;77.28
77056;SHT30;67471;44.918;8.614;2023-10-13T03:13:13;18.54;77.42
77056;SHT30;67471;44.918;8.614;2023-10-13T03:16:18;18.50;77.49
77056;SHT30;67471;44.918;8.614;2023-10-13T03:19:22;18.53;77.26
77056;SHT30;67471;44.918;8.614;2023-10-13T03:22:26;18.49;77.28
77056;SHT30;67471;44.918;8.614;2023-10-13T03:25:36;18.50;77.06
77056;SHT30;67471;44.918;8.614;2023-10-13T03:28:46;18.43;77.26
77056;SHT30;67471;44.918;8.614;2023-10-13T03:31:55;18.39;77.36
77056;SHT30;67471;44.918;8.614;2023-10-13T03:35:10;18.36;77.50
77056;SHT30;67471;44.918;8.614;2023-10-13T03:38:17;18.32;77.43
77056;SHT30;67471;44.918;8.614;2023-10-13T03:41:21;18.27;77.31
77056;SHT30;67471;44.918;8.614;2023-10-13T03:44:28;18.19;77.51
77056;SHT30;67471;44.918;8.614;2023-10-13T03:47:34;18.19;77.34
77056;SHT30;67471;44.918;8.614;2023-10-13T03:50:42;18.08;77.61
77056;SHT30;67471;44.918;8.614;2023-10-13T03:54:00;17.83;78.01
77056;SHT30;67471;44.918;8.614;2023-10-13T03:57:11;17.74;78.38
77056;SHT30;67471;44.918;8.614;2023-10-13T04:00:15;17.65;78.39
77056;SHT30;67471;44.918;8.614;2023-10-13T04:03:26;17.54;79.25
77056;SHT30;67471;44.918;8.614;2023-10-13T04:06:46;17.51;79.14
77056;SHT30;67471;44.918;8.614;2023-10-13T04:09:50;17.48;78.91
77056;SHT30;67471;44.918;8.614;2023-10-13T04:12:53;17.51;78.95
77056;SHT30;67471;44.918;8.614;2023-10-13T04:16:16;17.72;78.33
77056;SHT30;67471;44.918;8.614;2023-10-13T04:19:25;17.64;78.62
77056;SHT30;67471;44.918;8.614;2023-10-13T04:22:33;17.86;77.87
77056;SHT30;67471;44.918;8.614;2023-10-13T04:25:49;17.74;78.27
77056;SHT30;67471;44.918;8.614;2023-10-13T04:29:11;17.75;78.33
77056;SHT30;67471;44.918;8.614;2023-10-13T04:32:31;17.75;78.32
77056;SHT30;67471;44.918;8.614;2023-10-13T04:35:42;17.92;77.76
77056;SHT30;67471;44.918;8.614;2023-10-13T04:38:53;17.86;77.81
77056;SHT30;67471;44.918;8.614;2023-10-13T04:41:59;17.71;78.71
77056;SHT30;67471;44.918;8.614;2023-10-13T04:45:17;17.68;78.80
77056;SHT30;67471;44.918;8.614;2023-10-13T04:48:36;17.65;78.96
77056;SHT30;67471;44.918;8.614;2023-10-13T04:51:42;17.69;79.45
77056;SHT30;67471;44.918;8.614;2023-10-13T04:55:02;17.86;79.24
77056;SHT30;67471;44.918;8.614;2023-10-13T04:58:25;17.89;79.24
77056;SHT30;67471;44.918;8.614;2023-10-13T05:01:47;17.95;79.00
77056;SHT30;67471;44.918;8.614;2023-10-13T05:05:00;17.99;78.84
77056;SHT30;67471;44.918;8.614;2023-10-13T05:08:09;17.98;78.60
77056;SHT30;67471;44.918;8.614;2023-10-13T05:11:31;17.92;78.88
77056;SHT30;67471;44.918;8.614;2023-10-13T05:14:53;17.95;78.67
77056;SHT30;67471;44.918;8.614;2023-10-13T05:18:16;17.96;78.79
77056;SHT30;67471;44.918;8.614;2023-10-13T05:21:38;18.05;78.39
77056;SHT30;67471;44.918;8.614;2023-10-13T05:25:00;18.06;78.33
77056;SHT30;67471;44.918;8.614;2023-10-13T05:28:23;18.05;78.37
77056;SHT30;67471;44.918;8.614;2023-10-13T05:31:45;18.10;77.93
77056;SHT30;67471;44.918;8.614;2023-10-13T05:35:07;18.09;78.08
77056;SHT30;67471;44.918;8.614;2023-10-13T05:38:29;18.14;77.60
77056;SHT30;67471;44.918;8.614;2023-10-13T05:41:51;18.14;77.85
77056;SHT30;67471;44.918;8.614;2023-10-13T05:45:14;18.23;77.63
77056;SHT30;67471;44.918;8.614;2023-10-13T05:48:20;18.22;77.76
77056;SHT30;67471;44.918;8.614;2023-10-13T05:51:38;18.26;77.61
77056;SHT30;67471;44.918;8.614;2023-10-13T05:54:46;18.30;77.30
77056;SHT30;67471;44.918;8.614;2023-10-13T05:58:08;18.32;77.36
77056;SHT30;67471;44.918;8.614;2023-10-13T06:01:30;18.32;77.36
77056;SHT30;67471;44.918;8.614;2023-10-13T06:04:53;18.30;77.39
77056;SHT30;67471;44.918;8.614;2023-10-13T06:08:15;18.29;77.46
77056;SHT30;67471;44.918;8.614;2023-10-13T06:11:37;18.30;77.75
77056;SHT30;67471;44.918;8.614;2023-10-13T06:14:59;18.33;77.69
77056;SHT30;67471;44.918;8.614;2023-10-13T06:18:21;18.37;77.57
77056;SHT30;67471;44.918;8.614;2023-10-13T06:21:44;18.43;77.61
77056;SHT30;67471;44.918;8.614;2023-10-13T06:25:06;18.58;76.98
77056;SHT30;67471;44.918;8.614;2023-10-13T06:28:28;18.58;77.03
77056;SHT30;67471;44.918;8.614;2023-10-13T06:31:44;18.57;77.04
77056;SHT30;67471;44.918;8.614;2023-10-13T06:34:49;18.67;76.85
77056;SHT30;67471;44.918;8.614;2023-10-13T06:37:54;18.74;76.61
77056;SHT30;67471;44.918;8.614;2023-10-13T06:41:04;18.75;76.31
77056;SHT30;67471;44.918;8.614;2023-10-13T06:44:09;18.67;76.54
77056;SHT30;67471;44.918;8.614;2023-10-13T06:47:18;18.68;76.64
77056;SHT30;67471;44.918;8.614;2023-10-13T06:50:24;18.71;76.52
77056;SHT30;67471;44.918;8.614;2023-10-13T06:53:32;18.74;76.41
77056;SHT30;67471;44.918;8.614;2023-10-13T06:56:42;18.81;76.33
77056;SHT30;67471;44.918;8.614;2023-10-13T06:59:46;18.83;76.45
77056;SHT30;67471;44.918;8.614;2023-10-13T07:02:50;18.95;76.11
77056;SHT30;67471;44.918;8.614;2023-10-13T07:05:56;18.80;76.79
77056;SHT30;67471;44.918;8.614;2023-10-13T07:09:02;18.98;76.59
77056;SHT30;67471;44.918;8.614;2023-10-13T07:12:08;19.38;75.80
77056;SHT30;67471;44.918;8.614;2023-10-13T07:15:19;19.60;74.10
77056;SHT30;67471;44.918;8.614;2023-10-13T07:18:23;19.71;73.51
77056;SHT30;67471;44.918;8.614;2023-10-13T07:21:27;19.86;72.76
77056;SHT30;67471;44.918;8.614;2023-10-13T07:24:37;19.94;72.12
77056;SHT30;67471;44.918;8.614;2023-10-13T07:27:43;20.34;71.12
77056;SHT30;67471;44.918;8.614;2023-10-13T07:30:47;21.54;67.87
77056;SHT30;67471;44.918;8.614;2023-10-13T07:33:55;22.42;64.01
77056;SHT30;67471;44.918;8.614;2023-10-13T07:37:07;22.87;63.34
77056;SHT30;67471;44.918;8.614;2023-10-13T07:40:16;24.20;58.78
77056;SHT30;67471;44.918;8.614;2023-10-13T07:43:45;23.87;59.41
77056;SHT30;67471;44.918;8.614;2023-10-13T07:46:49;24.85;57.05
77056;SHT30;67471;44.918;8.614;2023-10-13T07:50:01;26.55;52.57
77056;SHT30;67471;44.918;8.614;2023-10-13T07:53:09;28.01;48.75
77056;SHT30;67471;44.918;8.614;2023-10-13T07:56:28;28.09;48.26
77056;SHT30;67471;44.918;8.614;2023-10-13T07:59:33;28.33;48.24
77056;SHT30;67471;44.918;8.614;2023-10-13T08:03:00;28.95;46.87
77056;SHT30;67471;44.918;8.614;2023-10-13T08:06:33;29.63;45.42
77056;SHT30;67471;44.918;8.614;2023-10-13T08:09:40;29.91;44.93
77056;SHT30;67471;44.918;8.614;2023-10-13T08:12:44;30.16;44.76
77056;SHT30;67471;44.918;8.614;2023-10-13T08:15:48;30.25;44.66
77056;SHT30;67471;44.918;8.614;2023-10-13T08:18:52;30.00;45.43
77056;SHT30;67471;44.918;8.614;2023-10-13T08:21:59;30.24;45.01
77056;SHT30;67471;44.918;8.614;2023-10-13T08:25:03;30.52;44.70
77056;SHT30;67471;44.918;8.614;2023-10-13T08:28:23;30.44;44.82
77056;SHT30;67471;44.918;8.614;2023-10-13T08:31:52;30.44;45.15
77056;SHT30;67471;44.918;8.614;2023-10-13T08:35:08;30.28;45.11
77056;SHT30;67471;44.918;8.614;2023-10-13T08:38:12;29.48;47.10
77056;SHT30;67471;44.918;8.614;2023-10-13T08:41:20;29.93;46.17
77056;SHT30;67471;44.918;8.614;2023-10-13T08:44:25;29.74;46.76
77056;SHT30;67471;44.918;8.614;2023-10-13T08:47:39;30.01;46.30
77056;SHT30;67471;44.918;8.614;2023-10-13T08:50:46;29.52;47.63
77056;SHT30;67471;44.918;8.614;2023-10-13T08:53:53;29.18;47.95
77056;SHT30;67471;44.918;8.614;2023-10-13T08:57:02;27.85;51.97
77056;SHT30;67471;44.918;8.614;2023-10-13T09:00:23;28.87;49.75
77056;SHT30;67471;44.918;8.614;2023-10-13T09:03:32;29.45;47.81
77056;SHT30;67471;44.918;8.614;2023-10-13T09:10:22;29.62;47.88
77056;SHT30;67471;44.918;8.614;2023-10-13T09:13:36;29.52;48.58
77056;SHT30;67471;44.918;8.614;2023-10-13T09:16:49;29.86;47.58
77056;SHT30;67471;44.918;8.614;2023-10-13T09:19:53;29.74;47.63
77056;SHT30;67471;44.918;8.614;2023-10-13T09:23:10;29.74;47.35
77056;SHT30;67471;44.918;8.614;2023-10-13T09:26:16;29.83;47.37
77056;SHT30;67471;44.918;8.614;2023-10-13T09:29:22;29.91;47.25
77056;SHT30;67471;44.918;8.614;2023-10-13T09:32:27;30.14;46.73
77056;SHT30;67471;44.918;8.614;2023-10-13T09:35:31;30.10;47.06
77056;SHT30;67471;44.918;8.614;2023-10-13T09:38:37;28.40;50.59
77056;SHT30;67471;44.918;8.614;2023-10-13T09:41:43;28.02;51.66
77056;SHT30;67471;44.918;8.614;2023-10-13T09:44:47;27.85;52.09
77056;SHT30;67471;44.918;8.614;2023-10-13T09:48:02;28.74;49.91
77056;SHT30;67471;44.918;8.614;2023-10-13T09:51:18;28.95;49.00
77056;SHT30;67471;44.918;8.614;2023-10-13T09:54:30;28.75;49.31
77056;SHT30;67471;44.918;8.614;2023-10-13T09:57:42;28.90;49.21
77056;SHT30;67471;44.918;8.614;2023-10-13T10:00:54;28.78;48.75
77056;SHT30;67471;44.918;8.614;2023-10-13T10:04:08;28.35;50.31
77056;SHT30;67471;44.918;8.614;2023-10-13T10:07:12;28.71;49.00
77056;SHT30;67471;44.918;8.614;2023-10-13T10:10:47;27.80;50.56
77056;SHT30;67471;44.918;8.614;2023-10-13T10:17:13;28.53;49.33
77056;SHT30;67471;44.918;8.614;2023-10-13T10:20:28;28.16;49.93
77056;SHT30;67471;44.918;8.614;2023-10-13T10:23:52;27.72;50.94
77056;SHT30;67471;44.918;8.614;2023-10-13T10:26:56;27.40;52.05
77056;SHT30;67471;44.918;8.614;2023-10-13T10:30:00;27.65;51.52
77056;SHT30;67471;44.918;8.614;2023-10-13T10:33:09;28.30;49.95
77056;SHT30;67471;44.918;8.614;2023-10-13T10:36:29;28.37;49.85
77056;SHT30;67471;44.918;8.614;2023-10-13T10:39:35;28.64;48.97
77056;SHT30;67471;44.918;8.614;2023-10-13T10:42:51;29.07;48.19
77056;SHT30;67471;44.918;8.614;2023-10-13T10:45:56;29.31;46.90
77056;SHT30;67471;44.918;8.614;2023-10-13T10:49:05;28.90;47.96
77056;SHT30;67471;44.918;8.614;2023-10-13T10:52:12;29.38;47.05
77056;SHT30;67471;44.918;8.614;2023-10-13T10:55:21;29.59;46.08
77056;SHT30;67471;44.918;8.614;2023-10-13T10:58:34;29.74;45.41
77056;SHT30;67471;44.918;8.614;2023-10-13T11:01:47;29.83;45.30
77056;SHT30;67471;44.918;8.614;2023-10-13T11:04:51;29.83;45.69
77056;SHT30;67471;44.918;8.614;2023-10-13T11:07:54;27.96;48.91
77056;SHT30;67471;44.918;8.614;2023-10-13T11:10:59;28.67;47.94
77056;SHT30;67471;44.918;8.614;2023-10-13T11:14:03;28.83;47.19
77056;SHT30;67471;44.918;8.614;2023-10-13T11:17:26;28.40;47.90
77056;SHT30;67471;44.918;8.614;2023-10-13T11:20:42;28.06;48.55
77056;SHT30;67471;44.918;8.614;2023-10-13T11:23:56;27.43;50.41
77056;SHT30;67471;44.918;8.614;2023-10-13T11:27:00;26.83;51.23
77056;SHT30;67471;44.918;8.614;2023-10-13T11:30:06;27.43;49.88
77056;SHT30;67471;44.918;8.614;2023-10-13T11:33:17;27.40;50.19
77056;SHT30;67471;44.918;8.614;2023-10-13T11:36:26;27.24;50.26
77056;SHT30;67471;44.918;8.614;2023-10-13T11:39:36;27.69;49.44
77056;SHT30;67471;44.918;8.614;2023-10-13T11:42:46;27.82;49.35
77056;SHT30;67471;44.918;8.614;2023-10-13T11:45:50;27.85;49.29
77056;SHT30;67471;44.918;8.614;2023-10-13T11:49:12;27.81;49.29
77056;SHT30;67471;44.918;8.614;2023-10-13T11:52:18;27.77;49.56
77056;SHT30;67471;44.918;8.614;2023-10-13T11:55:22;27.69;49.80
77056;SHT30;67471;44.918;8.614;2023-10-13T11:58:27;27.20;50.85
77056;SHT30;67471;44.918;8.614;2023-10-13T12:01:34;27.20;50.75
77056;SHT30;67471;44.918;8.614;2023-10-13T12:04:56;27.43;49.95
77056;SHT30;67471;44.918;8.614;2023-10-13T12:08:01;27.50;49.81
77056;SHT30;67471;44.918;8.614;2023-10-13T12:11:11;27.57;49.63
77056;SHT30;67471;44.918;8.614;2023-10-13T12:14:35;27.93;48.80
77056;SHT30;67471;44.918;8.614;2023-10-13T12:17:41;27.93;48.61
77056;SHT30;67471;44.918;8.614;2023-10-13T12:20:48;27.62;48.16
77056;SHT30;67471;44.918;8.614;2023-10-13T12:23:53;27.84;48.15
77056;SHT30;67471;44.918;8.614;2023-10-13T12:26:57;28.33;47.01
77056;SHT30;67471;44.918;8.614;2023-10-13T12:30:01;28.50;46.65
77056;SHT30;67471;44.918;8.614;2023-10-13T12:33:12;28.03;47.54
77056;SHT30;67471;44.918;8.614;2023-10-13T12:36:16;27.85;48.68
77056;SHT30;67471;44.918;8.614;2023-10-13T12:39:22;27.66;49.76
77056;SHT30;67471;44.918;8.614;2023-10-13T12:42:45;27.66;50.04
77056;SHT30;67471;44.918;8.614;2023-10-13T12:46:07;27.65;50.01
77056;SHT30;67471;44.918;8.614;2023-10-13T12:49:32;27.59;50.24
77056;SHT30;67471;44.918;8.614;2023-10-13T12:52:52;27.81;49.12
77056;SHT30;67471;44.918;8.614;2023-10-13T12:55:56;27.95;48.30
77056;SHT30;67471;44.918;8.614;2023-10-13T12:59:00;28.09;48.07
77056;SHT30;67471;44.918;8.614;2023-10-13T13:02:04;28.05;47.87
77056;SHT30;67471;44.918;8.614;2023-10-13T13:05:10;27.17;50.41
77056;SHT30;67471;44.918;8.614;2023-10-13T13:08:17;27.37;50.20
77056;SHT30;67471;44.918;8.614;2023-10-13T13:11:26;27.41;50.52
77056;SHT30;67471;44.918;8.614;2023-10-13T13:14:32;27.38;50.41
77056;SHT30;67471;44.918;8.614;2023-10-13T13:17:38;27.55;50.04
77056;SHT30;67471;44.918;8.614;2023-10-13T13:20:42;27.75;49.54
77056;SHT30;67471;44.918;8.614;2023-10-13T13:23:58;27.51;50.18
77056;SHT30;67471;44.918;8.614;2023-10-13T13:27:01;27.08;51.57
77056;SHT30;67471;44.918;8.614;2023-10-13T13:30:09;26.73;52.41
77056;SHT30;67471;44.918;8.614;2023-10-13T13:33:16;26.71;52.84
77056;SHT30;67471;44.918;8.614;2023-10-13T13:36:26;26.59;53.08
77056;SHT30;67471;44.918;8.614;2023-10-13T13:39:30;26.82;52.42
77056;SHT30;67471;44.918;8.614;2023-10-13T13:42:34;26.71;52.34
77056;SHT30;67471;44.918;8.614;2023-10-13T13:45:40;26.66;52.63
77056;SHT30;67471;44.918;8.614;2023-10-13T13:48:45;26.53;53.12
77056;SHT30;67471;44.918;8.614;2023-10-13T13:51:51;26.38;53.35
77056;SHT30;67471;44.918;8.614;2023-10-13T13:54:55;26.42;53.19
77056;SHT30;67471;44.918;8.614;2023-10-13T13:58:03;26.21;52.89
77056;SHT30;67471;44.918;8.614;2023-10-13T14:01:11;26.13;52.72
77056;SHT30;67471;44.918;8.614;2023-10-13T14:04:29;26.14;53.15
77056;SHT30;67471;44.918;8.614;2023-10-13T14:07:35;26.06;53.37
77056;SHT30;67471;44.918;8.614;2023-10-13T14:10:39;25.94;53.39
77056;SHT30;67471;44.918;8.614;2023-10-13T14:14:02;25.87;53.16
77056;SHT30;67471;44.918;8.614;2023-10-13T14:17:08;25.84;53.41
77056;SHT30;67471;44.918;8.614;2023-10-13T14:20:11;25.71;53.57
77056;SHT30;67471;44.918;8.614;2023-10-13T14:23:21;25.64;53.72
77056;SHT30;67471;44.918;8.614;2023-10-13T14:26:25;25.59;53.73
77056;SHT30;67471;44.918;8.614;2023-10-13T14:29:29;25.70;53.19
77056;SHT30;67471;44.918;8.614;2023-10-13T14:32:33;25.62;53.13
77056;SHT30;67471;44.918;8.614;2023-10-13T14:35:43;25.62;53.08
77056;SHT30;67471;44.918;8.614;2023-10-13T14:38:50;25.80;52.58
77056;SHT30;67471;44.918;8.614;2023-10-13T14:41:54;25.85;53.07
77056;SHT30;67471;44.918;8.614;2023-10-13T14:44:58;26.04;53.17
77056;SHT30;67471;44.918;8.614;2023-10-13T14:48:04;25.66;54.89
77056;SHT30;67471;44.918;8.614;2023-10-13T14:51:12;25.70;55.04
77056;SHT30;67471;44.918;8.614;2023-10-13T14:54:22;25.90;54.47
77056;SHT30;67471;44.918;8.614;2023-10-13T14:57:36;25.64;54.86
77056;SHT30;67471;44.918;8.614;2023-10-13T15:00:44;25.54;55.47
77056;SHT30;67471;44.918;8.614;2023-10-13T15:03:50;25.22;56.27
77056;SHT30;67471;44.918;8.614;2023-10-13T15:06:54;25.15;56.39
77056;SHT30;67471;44.918;8.614;2023-10-13T15:09:58;25.11;56.19
77056;SHT30;67471;44.918;8.614;2023-10-13T15:13:03;25.11;56.42
77056;SHT30;67471;44.918;8.614;2023-10-13T15:16:33;25.06;56.84
77056;SHT30;67471;44.918;8.614;2023-10-13T15:19:40;25.01;56.83
77056;SHT30;67471;44.918;8.614;2023-10-13T15:22:46;24.92;57.08
77056;SHT30;67471;44.918;8.614;2023-10-13T15:25:52;24.94;56.82
77056;SHT30;67471;44.918;8.614;2023-10-13T15:28:59;24.79;57.03
77056;SHT30;67471;44.918;8.614;2023-10-13T15:32:07;24.69;57.36
77056;SHT30;67471;44.918;8.614;2023-10-13T15:35:43;24.67;57.83
77056;SHT30;67471;44.918;8.614;2023-10-13T15:38:46;24.68;57.83
77056;SHT30;67471;44.918;8.614;2023-10-13T15:41:51;24.64;58.18
77056;SHT30;67471;44.918;8.614;2023-10-13T15:44:57;24.61;58.27
77056;SHT30;67471;44.918;8.614;2023-10-13T15:48:01;24.54;58.48
77056;SHT30;67471;44.918;8.614;2023-10-13T15:51:11;24.26;59.12
77056;SHT30;67471;44.918;8.614;2023-10-13T15:54:17;24.40;58.90
77056;SHT30;67471;44.918;8.614;2023-10-13T15:57:21;24.34;59.22
77056;SHT30;67471;44.918;8.614;2023-10-13T16:00:27;24.33;59.05
77056;SHT30;67471;44.918;8.614;2023-10-13T16:03:30;24.28;59.30
77056;SHT30;67471;44.918;8.614;2023-10-13T16:06:34;24.21;59.46
77056;SHT30;67471;44.918;8.614;2023-10-13T16:09:38;24.05;59.98
77056;SHT30;67471;44.918;8.614;2023-10-13T16:12:43;23.97;60.07
77056;SHT30;67471;44.918;8.614;2023-10-13T16:15:48;24.00;59.93
77056;SHT30;67471;44.918;8.614;2023-10-13T16:18:53;23.96;59.99
77056;SHT30;67471;44.918;8.614;2023-10-13T16:21:56;23.93;60.26
77056;SHT30;67471;44.918;8.614;2023-10-13T16:25:00;23.70;60.91
77056;SHT30;67471;44.918;8.614;2023-10-13T16:28:05;23.82;60.54
77056;SHT30;67471;44.918;8.614;2023-10-13T16:31:08;23.86;60.36
77056;SHT30;67471;44.918;8.614;2023-10-13T16:34:13;23.77;60.62
77056;SHT30;67471;44.918;8.614;2023-10-13T16:37:21;23.77;60.73
77056;SHT30;67471;44.918;8.614;2023-10-13T16:40:24;23.72;61.01
77056;SHT30;67471;44.918;8.614;2023-10-13T16:43:34;23.59;61.38
77056;SHT30;67471;44.918;8.614;2023-10-13T16:46:39;23.63;61.28
77056;SHT30;67471;44.918;8.614;2023-10-13T16:49:43;23.44;61.91
77056;SHT30;67471;44.918;8.614;2023-10-13T16:52:48;23.38;62.13
77056;SHT30;67471;44.918;8.614;2023-10-13T16:55:51;23.32;62.28
77056;SHT30;67471;44.918;8.614;2023-10-13T16:58:55;23.38;62.21
77056;SHT30;67471;44.918;8.614;2023-10-13T17:01:59;23.35;62.34
77056;SHT30;67471;44.918;8.614;2023-10-13T17:05:11;23.29;62.59
77056;SHT30;67471;44.918;8.614;2023-10-13T17:08:21;23.37;62.56
77056;SHT30;67471;44.918;8.614;2023-10-13T17:11:25;23.29;62.75
77056;SHT30;67471;44.918;8.614;2023-10-13T17:14:29;23.34;62.88
77056;SHT30;67471;44.918;8.614;2023-10-13T17:17:32;23.35;62.94
77056;SHT30;67471;44.918;8.614;2023-10-13T17:20:38;23.25;63.28
77056;SHT30;67471;44.918;8.614;2023-10-13T17:23:43;23.25;63.34
77056;SHT30;67471;44.918;8.614;2023-10-13T17:26:47;23.25;63.41
77056;SHT30;67471;44.918;8.614;2023-10-13T17:29:53;23.14;63.80
77056;SHT30;67471;44.918;8.614;2023-10-13T17:32:57;23.08;64.05
77056;SHT30;67471;44.918;8.614;2023-10-13T17:36:01;23.12;63.92
77056;SHT30;67471;44.918;8.614;2023-10-13T17:39:07;23.01;64.41
77056;SHT30;67471;44.918;8.614;2023-10-13T17:42:13;23.03;64.50
77056;SHT30;67471;44.918;8.614;2023-10-13T17:45:17;22.98;64.70
77056;SHT30;67471;44.918;8.614;2023-10-13T17:48:23;22.97;64.70
77056;SHT30;67471;44.918;8.614;2023-10-13T17:51:27;22.87;65.10
77056;SHT30;67471;44.918;8.614;2023-10-13T17:54:33;22.93;64.87
77056;SHT30;67471;44.918;8.614;2023-10-13T17:57:37;22.84;65.11
77056;SHT30;67471;44.918;8.614;2023-10-13T18:00:42;22.88;65.14
77056;SHT30;67471;44.918;8.614;2023-10-13T18:03:50;22.87;65.09
77056;SHT30;67471;44.918;8.614;2023-10-13T18:06:55;22.96;64.92
77056;SHT30;67471;44.918;8.614;2023-10-13T18:09:59;22.90;65.16
77056;SHT30;67471;44.918;8.614;2023-10-13T18:13:03;22.90;65.06
77056;SHT30;67471;44.918;8.614;2023-10-13T18:16:17;22.93;65.00
77056;SHT30;67471;44.918;8.614;2023-10-13T18:19:23;22.83;65.31
77056;SHT30;67471;44.918;8.614;2023-10-13T18:22:30;22.81;65.49
77056;SHT30;67471;44.918;8.614;2023-10-13T18:25:35;22.80;65.44
77056;SHT30;67471;44.918;8.614;2023-10-13T18:28:39;22.74;65.59
77056;SHT30;67471;44.918;8.614;2023-10-13T18:31:43;22.77;65.63
77056;SHT30;67471;44.918;8.614;2023-10-13T18:34:47;22.66;65.94
77056;SHT30;67471;44.918;8.614;2023-10-13T18:37:53;22.52;66.43
77056;SHT30;67471;44.918;8.614;2023-10-13T18:40:57;22.39;66.83
77056;SHT30;67471;44.918;8.614;2023-10-13T18:44:01;22.35;67.02
77056;SHT30;67471;44.918;8.614;2023-10-13T18:47:04;22.26;67.32
77056;SHT30;67471;44.918;8.614;2023-10-13T18:50:09;22.23;67.54
77056;SHT30;67471;44.918;8.614;2023-10-13T18:53:12;22.22;67.74
77056;SHT30;67471;44.918;8.614;2023-10-13T18:56:18;22.15;67.88
77056;SHT30;67471;44.918;8.614;2023-10-13T18:59:23;22.20;67.92
77056;SHT30;67471;44.918;8.614;2023-10-13T19:02:26;21.99;68.59
77056;SHT30;67471;44.918;8.614;2023-10-13T19:05:32;22.04;68.51
77056;SHT30;67471;44.918;8.614;2023-10-13T19:08:36;22.05;68.48
77056;SHT30;67471;44.918;8.614;2023-10-13T19:11:40;22.06;68.38
77056;SHT30;67471;44.918;8.614;2023-10-13T19:14:44;21.94;68.90
77056;SHT30;67471;44.918;8.614;2023-10-13T19:17:48;22.06;68.37
77056;SHT30;67471;44.918;8.614;2023-10-13T19:20:53;22.13;68.17
77056;SHT30;67471;44.918;8.614;2023-10-13T19:23:57;22.12;68.14
77056;SHT30;67471;44.918;8.614;2023-10-13T19:27:01;22.04;68.58
77056;SHT30;67471;44.918;8.614;2023-10-13T19:30:06;21.85;68.91
77056;SHT30;67471;44.918;8.614;2023-10-13T19:33:10;21.91;68.84
77056;SHT30;67471;44.918;8.614;2023-10-13T19:36:15;21.88;69.05
77056;SHT30;67471;44.918;8.614;2023-10-13T19:39:20;21.95;68.65
77056;SHT30;67471;44.918;8.614;2023-10-13T19:42:24;21.71;69.50
77056;SHT30;67471;44.918;8.614;2023-10-13T19:45:27;21.54;70.00
77056;SHT30;67471;44.918;8.614;2023-10-13T19:48:31;21.57;69.87
77056;SHT30;67471;44.918;8.614;2023-10-13T19:51:38;21.16;71.10
77056;SHT30;67471;44.918;8.614;2023-10-13T19:54:43;21.34;70.61
77056;SHT30;67471;44.918;8.614;2023-10-13T19:57:47;21.22;70.80